createdAt,value
2019-04-10T00:01:32.031Z,50.63
2019-04-10T00:04:04.933Z,50.63
2019-04-10T00:06:37.625Z,50.63
2019-04-10T00:09:10.607Z,50.64
2019-04-10T00:11:43.261Z,51.14
2019-04-10T00:14:16.426Z,50.97
2019-04-10T00:16:50.446Z,50.78
2019-04-10T00:19:22.895Z,50.80
2019-04-10T00:21:55.700Z,51.16
2019-04-10T00:24:28.359Z,50.95
2019-04-10T00:27:02.076Z,50.87
2019-04-10T00:29:34.715Z,51.04
2019-04-10T00:32:07.775Z,50.96
2019-04-10T00:34:40.316Z,51.18
2019-04-10T00:37:22.115Z,51.36
2019-04-10T00:39:47.766Z,51.21
2019-04-10T00:42:21.074Z,51.30
2019-04-10T00:44:54.213Z,51.28
2019-04-10T00:47:26.841Z,51.40
2019-04-10T00:49:59.475Z,51.41
2019-04-10T00:52:32.374Z,51.19
2019-04-10T00:55:05.742Z,51.20
2019-04-10T01:00:14.908Z,51.32
2019-04-10T01:02:47.525Z,51.32
2019-04-10T01:05:20.169Z,51.43
2019-04-10T01:07:52.595Z,51.47
2019-04-10T01:10:25.025Z,51.52
2019-04-10T01:12:58.635Z,51.74
2019-04-10T01:15:31.207Z,51.95
2019-04-10T01:18:04.618Z,51.86
2019-04-10T01:20:37.772Z,51.78
2019-04-10T01:23:10.136Z,52.18
2019-04-10T01:25:42.941Z,52.46
2019-04-10T01:28:16.342Z,52.88
2019-04-10T01:30:48.776Z,52.50
2019-04-10T01:33:21.215Z,52.17
2019-04-10T01:35:54.317Z,52.39
2019-04-10T01:38:29.564Z,52.36
2019-04-10T01:41:02.225Z,52.27
2019-04-10T01:43:35.136Z,52.32
2019-04-10T01:46:08.366Z,52.83
2019-04-10T01:48:41.940Z,52.54
2019-04-10T01:51:15.141Z,52.82
2019-04-10T01:53:48.221Z,52.25
2019-04-10T01:56:27.480Z,52.36
2019-04-10T01:58:54.763Z,52.32
2019-04-10T02:01:31.057Z,52.31
2019-04-10T02:04:04.594Z,52.36
2019-04-10T02:06:37.800Z,52.28
2019-04-10T02:09:11.425Z,52.47
2019-04-10T02:11:43.967Z,52.65
2019-04-10T02:14:16.916Z,53.11
2019-04-10T02:16:50.050Z,52.97
2019-04-10T02:19:22.506Z,53.28
2019-04-10T02:21:56.031Z,53.18
2019-04-10T02:24:29.342Z,53.37
2019-04-10T02:27:02.378Z,53.83
2019-04-10T02:29:35.646Z,53.55
2019-04-10T02:32:10.308Z,53.51
2019-04-10T02:34:43.875Z,53.71
2019-04-10T02:37:17.195Z,53.81
2019-04-10T02:39:52.890Z,53.69
2019-04-10T02:42:24.750Z,54.07
2019-04-10T02:44:57.843Z,53.88
2019-04-10T02:47:31.233Z,53.91
2019-04-10T02:50:06.104Z,53.94
2019-04-10T02:52:40.186Z,53.83
2019-04-10T02:55:12.608Z,53.83
2019-04-10T02:57:45.969Z,53.83
2019-04-10T03:00:20.405Z,53.87
2019-04-10T03:02:55.063Z,53.70
2019-04-10T03:05:28.176Z,53.59
2019-04-10T03:08:01.105Z,53.89
2019-04-10T03:10:41.107Z,53.62
2019-04-10T03:13:09.022Z,53.51
2019-04-10T03:15:43.429Z,53.56
2019-04-10T03:18:16.803Z,53.41
2019-04-10T03:20:49.337Z,53.38
2019-04-10T03:23:21.827Z,54.11
2019-04-10T03:25:54.596Z,53.49
2019-04-10T03:28:27.143Z,53.67
2019-04-10T03:31:01.079Z,53.59
2019-04-10T03:33:54.423Z,53.69
2019-04-10T03:36:27.385Z,53.63
2019-04-10T03:39:04.522Z,54.03
2019-04-10T03:41:36.611Z,54.21
2019-04-10T03:44:10.181Z,54.15
2019-04-10T03:46:42.774Z,54.55
2019-04-10T03:49:15.800Z,54.72
2019-04-10T03:51:50.728Z,54.46
2019-04-10T03:54:23.245Z,54.86
2019-04-10T03:56:56.268Z,54.84
2019-04-10T03:59:28.783Z,55.01
2019-04-10T04:02:01.530Z,55.11
2019-04-10T04:04:34.453Z,55.37
2019-04-10T04:07:07.119Z,55.41
2019-04-10T04:09:39.942Z,55.53
2019-04-10T04:12:12.645Z,55.35
2019-04-10T04:14:45.156Z,55.38
2019-04-10T04:17:17.666Z,55.39
2019-04-10T04:19:50.495Z,55.04
2019-04-10T04:22:23.625Z,54.97
2019-04-10T04:24:56.136Z,55.39
2019-04-10T04:27:29.284Z,55.34
2019-04-10T04:30:02.097Z,55.61
2019-04-10T04:32:34.745Z,55.22
2019-04-10T04:35:07.195Z,55.37
2019-04-10T04:37:50.589Z,55.15
2019-04-10T04:40:23.796Z,54.89
2019-04-10T04:42:56.526Z,54.87
2019-04-10T04:45:30.011Z,54.81
2019-04-10T04:48:02.989Z,55.34
2019-04-10T04:50:35.770Z,55.13
2019-04-10T04:53:08.763Z,55.12
2019-04-10T04:55:42.826Z,54.76
2019-04-10T04:58:18.625Z,54.93
2019-04-10T05:00:51.996Z,55.16
2019-04-10T05:03:25.723Z,54.60
2019-04-10T05:06:01.689Z,54.52
2019-04-10T05:08:34.518Z,54.29
2019-04-10T05:11:07.316Z,54.14
2019-04-10T05:13:40.307Z,53.96
2019-04-10T05:16:12.836Z,54.07
2019-04-10T05:18:45.688Z,53.58
2019-04-10T05:21:19.137Z,53.83
2019-04-10T05:23:52.166Z,54.83
2019-04-10T05:26:25.647Z,53.81
2019-04-10T05:28:58.361Z,53.64
2019-04-10T05:31:30.666Z,53.19
2019-04-10T05:34:03.317Z,53.07
2019-04-10T05:36:36.023Z,53.03
2019-04-10T05:39:09.235Z,53.23
2019-04-10T05:41:41.973Z,52.87
2019-04-10T05:44:16.533Z,52.69
2019-04-10T05:46:49.191Z,52.31
2019-04-10T05:49:22.542Z,52.37
2019-04-10T05:51:55.646Z,52.44
2019-04-10T05:54:29.241Z,52.00
2019-04-10T05:57:02.018Z,51.84
2019-04-10T05:59:34.746Z,51.68
2019-04-10T06:02:08.011Z,51.86
2019-04-10T06:04:41.978Z,51.83
2019-04-10T06:07:14.606Z,51.71
2019-04-10T06:09:55.811Z,52.00
2019-04-10T06:12:22.322Z,51.75
2019-04-10T06:14:55.085Z,51.52
2019-04-10T06:17:27.704Z,51.66
2019-04-10T06:20:01.166Z,51.62
2019-04-10T06:22:34.759Z,50.95
2019-04-10T06:25:10.582Z,51.20
2019-04-10T06:27:42.982Z,50.91
2019-04-10T06:30:15.936Z,50.77
2019-04-10T06:32:48.615Z,50.51
2019-04-10T06:35:21.990Z,51.15
2019-04-10T06:37:54.848Z,50.12
2019-04-10T06:40:29.023Z,50.08
2019-04-10T06:43:01.977Z,50.12
2019-04-10T06:45:35.647Z,49.85
2019-04-10T06:48:09.413Z,49.86
2019-04-10T06:50:43.221Z,49.79
2019-04-10T06:53:18.707Z,49.28
2019-04-10T06:55:52.930Z,49.33
2019-04-10T06:58:25.808Z,49.03
2019-04-10T07:01:01.395Z,49.32
2019-04-10T07:03:49.535Z,49.26
2019-04-10T07:06:15.664Z,49.26
2019-04-10T07:08:49.826Z,48.79
2019-04-10T07:11:19.510Z,48.46
2019-04-10T07:13:53.447Z,48.10
2019-04-10T07:16:28.939Z,47.96
2019-04-10T07:19:03.103Z,47.65
2019-04-10T07:21:36.068Z,47.51
2019-04-10T07:24:10.974Z,47.21
2019-04-10T07:26:45.159Z,47.42
2019-04-10T07:29:21.116Z,47.00
2019-04-10T07:31:51.042Z,46.96
2019-04-10T07:34:25.558Z,47.24
2019-04-10T07:37:00.779Z,47.29
2019-04-10T07:39:34.130Z,47.32
2019-04-10T07:42:07.496Z,47.36
2019-04-10T07:44:40.256Z,47.28
2019-04-10T07:47:15.696Z,47.86
2019-04-10T07:49:48.376Z,47.08
2019-04-10T07:52:22.328Z,46.53
2019-04-10T07:54:55.166Z,46.79
2019-04-10T07:57:28.658Z,46.83
2019-04-10T08:00:01.332Z,46.08
2019-04-10T08:02:35.319Z,45.63
2019-04-10T08:05:08.251Z,45.20
2019-04-10T08:07:40.682Z,44.88
2019-04-10T08:10:12.856Z,44.26
2019-04-10T08:12:50.013Z,44.18
2019-04-10T08:15:19.007Z,43.93
2019-04-10T08:17:51.567Z,44.23
2019-04-10T08:20:24.073Z,43.75
2019-04-10T08:22:55.925Z,43.91
2019-04-10T08:25:29.115Z,44.09
2019-04-10T08:28:02.796Z,43.90
2019-04-10T08:30:36.744Z,44.01
2019-04-10T08:33:09.914Z,43.09
2019-04-10T08:35:42.519Z,43.12
2019-04-10T08:38:15.355Z,42.95
2019-04-10T08:40:48.275Z,42.38
2019-04-10T08:43:20.826Z,42.33
2019-04-10T08:45:55.101Z,41.98
2019-04-10T08:48:30.123Z,41.26
2019-04-10T08:51:03.475Z,41.48
2019-04-10T08:53:36.247Z,40.77
2019-04-10T08:56:08.785Z,42.40
2019-04-10T08:58:48.389Z,41.20
2019-04-10T09:01:21.396Z,41.52
2019-04-10T09:03:53.836Z,41.31
2019-04-10T09:06:27.231Z,42.01
2019-04-10T09:09:01.409Z,41.62
2019-04-10T09:11:37.589Z,41.38
2019-04-10T09:14:17.049Z,40.69
2019-04-10T09:16:53.124Z,40.44
2019-04-10T09:19:25.793Z,39.92
2019-04-10T09:22:01.201Z,39.73
2019-04-10T09:25:11.175Z,38.56
2019-04-10T09:27:48.115Z,37.42
2019-04-10T09:34:13.796Z,36.77
2019-04-10T09:37:10.455Z,36.23
2019-04-10T09:39:43.461Z,35.16
2019-04-10T09:42:23.609Z,35.09
2019-04-10T09:44:57.030Z,34.02
2019-04-10T09:47:32.347Z,35.68
2019-04-10T09:50:41.995Z,36.27
2019-04-10T09:53:15.053Z,34.92
2019-04-10T09:56:57.089Z,35.69
2019-04-10T09:59:35.438Z,36.85
2019-04-10T10:02:05.125Z,36.84
2019-04-10T10:04:39.746Z,37.22
2019-04-10T10:07:14.387Z,36.61
2019-04-10T10:09:49.340Z,36.74
2019-04-10T10:12:54.295Z,36.82
2019-04-10T10:25:05.328Z,36.06
2019-04-10T10:31:36.275Z,35.56
2019-04-10T10:34:18.856Z,35.61
2019-04-10T10:37:00.129Z,36.16
2019-04-10T10:39:32.768Z,36.39
2019-04-10T10:42:05.576Z,36.75
2019-04-10T10:44:38.506Z,36.63
2019-04-10T10:47:12.045Z,36.79
2019-04-10T10:49:44.694Z,36.92
2019-04-10T10:52:17.590Z,37.22
2019-04-10T10:54:51.392Z,37.25
2019-04-10T10:57:27.026Z,37.77
2019-04-10T11:00:14.741Z,38.19
2019-04-10T11:02:47.386Z,37.54
2019-04-10T11:05:21.064Z,37.61
2019-04-10T11:07:55.935Z,35.90
2019-04-10T11:10:30.053Z,37.69
2019-04-10T11:13:02.706Z,38.24
2019-04-10T11:15:37.747Z,38.14
2019-04-10T11:18:11.175Z,38.20
2019-04-10T11:20:44.033Z,37.15
2019-04-10T11:23:17.908Z,37.90
2019-04-10T11:25:50.795Z,38.06
2019-04-10T11:28:28.619Z,37.93
2019-04-10T11:30:58.627Z,37.41
2019-04-10T11:33:31.249Z,37.30
2019-04-10T11:36:03.845Z,37.32
2019-04-10T11:38:37.645Z,36.85
2019-04-10T11:41:10.365Z,36.98
2019-04-10T11:43:44.624Z,36.18
2019-04-10T11:46:17.136Z,36.14
2019-04-10T11:49:27.709Z,35.19
2019-04-10T11:52:01.818Z,34.85
2019-04-10T11:54:41.092Z,34.47
2019-04-10T11:57:16.208Z,33.53
2019-04-10T11:59:48.822Z,33.27
2019-04-10T12:02:24.860Z,33.39
2019-04-10T12:05:01.673Z,32.02
2019-04-10T12:08:01.890Z,32.44
2019-04-10T12:12:39.037Z,30.96
2019-04-10T12:15:12.295Z,31.15
2019-04-10T12:17:44.896Z,31.10
2019-04-10T12:20:18.872Z,31.07
2019-04-10T12:22:52.375Z,31.33
2019-04-10T12:25:25.126Z,31.61
2019-04-10T12:27:57.875Z,31.17
2019-04-10T12:30:31.168Z,29.73
2019-04-10T12:33:11.720Z,30.91
2019-04-10T12:35:58.978Z,30.66
2019-04-10T12:38:37.364Z,29.95
2019-04-10T12:41:51.936Z,30.67
2019-04-10T12:44:43.629Z,29.90
2019-04-10T12:47:20.435Z,29.50
2019-04-10T12:49:56.765Z,29.70
2019-04-10T12:52:30.278Z,30.03
2019-04-10T12:55:03.918Z,30.34
2019-04-10T12:57:39.855Z,29.99
2019-04-10T13:00:16.010Z,29.57
2019-04-10T13:02:48.816Z,30.52
2019-04-10T13:05:29.347Z,31.19
2019-04-10T13:08:14.648Z,30.73
2019-04-10T13:10:37.812Z,32.62
2019-04-10T13:13:11.561Z,33.17
2019-04-10T13:15:44.031Z,33.23
2019-04-10T13:18:16.705Z,33.60
2019-04-10T13:20:50.313Z,33.96
2019-04-10T13:23:23.045Z,34.26
2019-04-10T13:26:01.758Z,34.20
2019-04-10T13:28:29.781Z,34.61
2019-04-10T13:31:05.566Z,34.05
2019-04-10T13:33:40.609Z,34.36
2019-04-10T13:36:13.458Z,34.23
2019-04-10T13:38:48.529Z,33.78
2019-04-10T13:41:21.525Z,33.30
2019-04-10T13:43:54.135Z,32.67
2019-04-10T13:46:26.905Z,32.64
2019-04-10T13:49:00.195Z,33.24
2019-04-10T13:51:35.114Z,32.92
2019-04-10T13:54:10.411Z,33.12
2019-04-10T13:56:43.395Z,33.09
2019-04-10T13:59:17.116Z,33.42
2019-04-10T14:01:50.249Z,33.73
2019-04-10T14:04:25.065Z,33.90
2019-04-10T14:07:01.898Z,34.46
2019-04-10T14:09:44.070Z,33.98
2019-04-10T14:12:58.101Z,34.56
2019-04-10T14:15:42.236Z,34.47
2019-04-10T14:18:52.844Z,34.43
2019-04-10T14:21:33.795Z,34.60
2019-04-10T14:24:19.982Z,34.94
2019-04-10T14:27:30.458Z,34.50
2019-04-10T14:30:33.879Z,33.67
2019-04-10T14:34:18.418Z,33.64
2019-04-10T14:40:22.809Z,35.48
2019-04-10T14:42:57.730Z,34.29
2019-04-10T14:45:30.291Z,35.52
2019-04-10T14:48:03.543Z,35.75
2019-04-10T14:50:36.257Z,35.51
2019-04-10T14:53:09.635Z,35.76
2019-04-10T14:55:42.313Z,35.90
2019-04-10T14:58:25.169Z,35.84
2019-04-10T15:00:50.173Z,36.15
2019-04-10T15:03:24.298Z,36.12
2019-04-10T15:06:01.133Z,35.73
2019-04-10T15:08:34.114Z,36.25
2019-04-10T15:11:06.945Z,36.56
2019-04-10T15:13:44.327Z,36.82
2019-04-10T15:16:17.176Z,36.94
2019-04-10T15:18:49.984Z,36.96
2019-04-10T15:21:25.006Z,37.10
2019-04-10T15:23:59.444Z,37.37
2019-04-10T15:26:48.841Z,37.41
2019-04-10T15:29:25.144Z,37.33
2019-04-10T15:32:00.020Z,37.63
2019-04-10T15:34:33.252Z,37.87
2019-04-10T15:37:06.793Z,37.88
2019-04-10T15:39:41.452Z,37.90
2019-04-10T15:42:14.248Z,38.10
2019-04-10T15:44:48.139Z,38.20
2019-04-10T15:47:23.461Z,38.24
2019-04-10T15:49:56.276Z,38.36
2019-04-10T15:52:29.163Z,38.42
2019-04-10T15:55:03.692Z,38.30
2019-04-10T15:57:45.805Z,38.47
2019-04-10T16:00:14.376Z,39.05
2019-04-10T16:02:47.116Z,38.97
2019-04-10T16:05:52.234Z,39.12
2019-04-10T16:08:28.061Z,39.63
2019-04-10T16:11:17.887Z,39.46
2019-04-10T16:13:54.875Z,39.67
2019-04-10T16:16:49.383Z,39.58
2019-04-10T16:19:52.849Z,39.57
2019-04-10T16:22:29.363Z,39.64
2019-04-10T16:25:27.779Z,40.38
2019-04-10T16:29:03.999Z,40.31
2019-04-10T16:31:37.660Z,41.04
2019-04-10T16:34:10.275Z,40.71
2019-04-10T16:36:43.944Z,40.50
2019-04-10T16:39:17.846Z,40.63
2019-04-10T16:41:52.384Z,40.91
2019-04-10T16:44:26.972Z,41.37
2019-04-10T16:46:59.537Z,40.64
2019-04-10T16:49:32.934Z,40.64
2019-04-10T16:52:05.630Z,40.67
2019-04-10T16:54:54.164Z,40.61
2019-04-10T16:57:26.888Z,40.94
2019-04-10T16:59:59.406Z,40.67
2019-04-10T17:02:32.026Z,40.49
2019-04-10T17:05:08.686Z,41.07
2019-04-10T17:07:41.305Z,40.98
2019-04-10T17:10:20.447Z,41.25
2019-04-10T17:12:49.798Z,41.31
2019-04-10T17:15:22.206Z,41.47
2019-04-10T17:17:55.008Z,41.67
2019-04-10T17:20:28.765Z,41.69
2019-04-10T17:23:02.660Z,42.13
2019-04-10T17:25:36.012Z,41.63
2019-04-10T17:28:10.118Z,42.16
2019-04-10T17:30:42.775Z,42.12
2019-04-10T17:33:16.469Z,41.96
2019-04-10T17:35:50.029Z,42.07
2019-04-10T17:38:22.687Z,42.11
2019-04-10T17:40:57.659Z,42.12
2019-04-10T17:43:30.336Z,42.20
2019-04-10T17:46:02.889Z,42.55
2019-04-10T17:48:37.748Z,42.24
2019-04-10T17:51:11.966Z,43.00
2019-04-10T17:53:45.450Z,42.50
2019-04-10T17:56:18.001Z,42.41
2019-04-10T17:58:51.964Z,43.17
2019-04-10T18:01:25.138Z,43.13
2019-04-10T18:04:01.359Z,43.29
2019-04-10T18:06:33.216Z,43.27
2019-04-10T18:09:09.698Z,43.46
2019-04-10T18:11:43.523Z,43.22
2019-04-10T18:14:17.377Z,43.53
2019-04-10T18:16:50.038Z,43.39
2019-04-10T18:19:22.525Z,43.01
2019-04-10T18:21:56.250Z,42.71
2019-04-10T18:24:28.906Z,42.81
2019-04-10T18:27:02.266Z,42.70
2019-04-10T18:29:35.515Z,42.53
2019-04-10T18:32:08.149Z,42.55
2019-04-10T18:34:40.645Z,42.97
2019-04-10T18:37:15.760Z,43.00
2019-04-10T18:39:48.539Z,43.21
2019-04-10T18:42:22.901Z,43.17
2019-04-10T18:44:55.555Z,43.10
2019-04-10T18:47:31.859Z,43.14
2019-04-10T18:50:09.891Z,43.06
2019-04-10T18:52:51.824Z,43.32
2019-04-10T18:55:26.136Z,43.60
2019-04-10T18:58:00.055Z,44.43
2019-04-10T19:00:56.751Z,43.70
2019-04-10T19:03:55.171Z,43.68
2019-04-10T19:06:28.893Z,43.54
2019-04-10T19:09:10.075Z,43.77
2019-04-10T19:11:38.405Z,43.87
2019-04-10T19:14:12.138Z,44.09
2019-04-10T19:16:45.816Z,44.74
2019-04-10T19:19:18.608Z,44.35
2019-04-10T19:21:51.486Z,44.75
2019-04-10T19:24:25.908Z,44.25
2019-04-10T19:26:58.499Z,44.28
2019-04-10T19:29:31.813Z,44.52
2019-04-10T19:32:05.285Z,44.18
2019-04-10T19:34:41.311Z,44.23
2019-04-10T19:37:14.506Z,44.74
2019-04-10T19:39:47.235Z,44.21
2019-04-10T19:42:19.645Z,45.11
2019-04-10T19:44:51.294Z,44.34
2019-04-10T19:47:23.746Z,45.46
2019-04-10T19:49:57.144Z,44.44
2019-04-10T19:52:30.690Z,44.41
2019-04-10T19:55:05.112Z,44.66
2019-04-10T19:57:39.572Z,44.48
2019-04-10T20:00:20.011Z,44.51
2019-04-10T20:02:52.856Z,44.79
2019-04-10T20:05:25.377Z,44.80
2019-04-10T20:07:58.057Z,44.81
2019-04-10T20:10:30.616Z,44.85
2019-04-10T20:13:03.347Z,45.03
2019-04-10T20:15:36.746Z,45.20
2019-04-10T20:18:10.673Z,45.15
2019-04-10T20:20:43.733Z,45.11
2019-04-10T20:23:16.430Z,45.77
2019-04-10T20:25:49.098Z,45.88
2019-04-10T20:28:22.791Z,45.96
2019-04-10T20:30:56.762Z,45.92
2019-04-10T20:33:30.450Z,45.71
2019-04-10T20:36:03.125Z,45.94
2019-04-10T20:38:36.615Z,46.01
2019-04-10T20:41:09.257Z,46.42
2019-04-10T20:43:42.742Z,46.28
2019-04-10T20:46:15.615Z,46.45
2019-04-10T20:48:48.796Z,46.80
2019-04-10T20:51:21.405Z,47.13
2019-04-10T20:53:54.226Z,46.69
2019-04-10T20:56:26.795Z,46.58
2019-04-10T20:58:59.381Z,46.75
2019-04-10T21:01:33.058Z,46.86
2019-04-10T21:04:05.705Z,46.93
2019-04-10T21:06:40.879Z,47.21
2019-04-10T21:09:12.710Z,47.28
2019-04-10T21:11:58.881Z,47.04
2019-04-10T21:14:19.405Z,46.99
2019-04-10T21:16:52.096Z,47.21
2019-04-10T21:19:24.900Z,47.86
2019-04-10T21:21:57.585Z,46.98
2019-04-10T21:24:30.027Z,47.60
2019-04-10T21:27:03.568Z,47.52
2019-04-10T21:29:53.415Z,47.32
2019-04-10T21:32:34.591Z,47.14
2019-04-10T21:35:09.608Z,47.28
2019-04-10T21:37:42.379Z,47.64
2019-04-10T21:40:14.945Z,47.58
2019-04-10T21:42:47.662Z,47.87
2019-04-10T21:45:20.209Z,47.97
2019-04-10T21:47:52.907Z,47.79
2019-04-10T21:50:25.398Z,48.07
2019-04-10T21:52:57.796Z,47.75
2019-04-10T21:55:29.213Z,48.14
2019-04-10T21:58:01.690Z,50.28
2019-04-10T22:00:52.675Z,48.64
2019-04-10T22:03:27.516Z,48.22
2019-04-10T22:06:11.837Z,48.24
2019-04-10T22:08:49.942Z,48.33
2019-04-10T22:11:23.244Z,48.50
2019-04-10T22:13:56.832Z,48.21
2019-04-10T22:16:30.517Z,48.19
2019-04-10T22:19:03.781Z,48.83
2019-04-10T22:21:37.400Z,48.59
2019-04-10T22:24:10.057Z,48.57
2019-04-10T22:26:42.706Z,49.31
2019-04-10T22:29:15.166Z,49.09
2019-04-10T22:31:49.163Z,49.03
2019-04-10T22:34:21.709Z,49.36
2019-04-10T22:36:54.257Z,49.84
2019-04-10T22:39:27.458Z,49.87
2019-04-10T22:42:01.150Z,49.68
2019-04-10T22:44:40.227Z,50.33
2019-04-10T22:47:09.208Z,50.09
2019-04-10T22:49:42.566Z,50.29
2019-04-10T22:52:15.514Z,50.59
2019-04-10T22:54:47.986Z,50.71
2019-04-10T22:57:21.052Z,50.60
2019-04-10T22:59:53.737Z,50.98
2019-04-10T23:02:26.237Z,50.77
2019-04-10T23:04:59.778Z,50.64
2019-04-10T23:07:33.603Z,50.90
2019-04-10T23:10:06.709Z,50.80
2019-04-10T23:12:50.335Z,51.05
2019-04-10T23:15:15.409Z,50.96
2019-04-10T23:17:48.669Z,50.85
2019-04-10T23:20:21.263Z,50.97
2019-04-10T23:22:54.788Z,51.37
2019-04-10T23:25:27.360Z,51.31
2019-04-10T23:28:01.061Z,52.46
2019-04-10T23:30:33.606Z,51.56
2019-04-10T23:33:08.072Z,51.63
2019-04-10T23:35:41.280Z,51.95
2019-04-10T23:38:13.808Z,52.04
2019-04-10T23:40:47.273Z,51.80
2019-04-10T23:43:21.146Z,52.17
2019-04-10T23:45:54.297Z,52.15
2019-04-10T23:48:26.836Z,52.25
2019-04-10T23:50:59.226Z,51.83
2019-04-10T23:53:32.864Z,51.95
2019-04-10T23:56:06.265Z,51.83
2019-04-10T23:58:40.223Z,52.58
